createdAt,value
2017-08-23T00:00:23.679Z,17.55
2017-08-23T00:02:18.143Z,17.52
2017-08-23T00:03:18.159Z,17.48
2017-08-23T00:05:12.767Z,17.43
2017-08-23T00:06:12.671Z,17.48
2017-08-23T00:08:07.127Z,17.52
2017-08-23T00:09:07.183Z,17.46
2017-08-23T00:11:01.639Z,17.49
2017-08-23T00:12:01.648Z,17.36
2017-08-23T00:13:55.107Z,17.26
2017-08-23T00:14:55.144Z,17.28
2017-08-23T00:16:49.633Z,17.30
2017-08-23T00:17:49.632Z,17.31
2017-08-23T00:19:44.096Z,17.30
2017-08-23T00:20:44.151Z,17.26
2017-08-23T00:22:38.600Z,17.22
2017-08-23T00:23:38.631Z,17.22
2017-08-23T00:25:34.144Z,17.19
2017-08-23T00:26:34.152Z,17.16
2017-08-23T00:28:28.592Z,17.22
2017-08-23T00:29:28.616Z,17.15
2017-08-23T00:31:23.098Z,17.26
2017-08-23T00:32:23.141Z,17.25
2017-08-23T00:34:17.624Z,17.16
2017-08-23T00:35:17.632Z,17.07
2017-08-23T00:37:12.073Z,17.07
2017-08-23T00:38:12.120Z,17.11
2017-08-23T00:40:06.593Z,17.11
2017-08-23T00:41:06.601Z,17.12
2017-08-23T00:43:00.072Z,17.12
2017-08-23T00:44:00.113Z,16.96
2017-08-23T00:45:54.633Z,17.15
2017-08-23T00:46:54.625Z,17.04
2017-08-23T00:48:49.065Z,16.89
2017-08-23T00:49:49.121Z,16.96
2017-08-23T00:51:43.625Z,16.79
2017-08-23T00:52:43.601Z,16.75
2017-08-23T00:54:38.073Z,16.85
2017-08-23T00:55:38.097Z,16.88
2017-08-23T00:57:32.596Z,16.83
2017-08-23T00:58:32.585Z,16.81
2017-08-23T01:00:27.074Z,16.93
2017-08-23T01:01:27.106Z,16.89
2017-08-23T01:03:21.601Z,16.93
2017-08-23T01:04:21.607Z,16.88
2017-08-23T01:06:16.050Z,16.71
2017-08-23T01:07:16.217Z,16.75
2017-08-23T01:09:10.562Z,16.73
2017-08-23T01:10:10.569Z,16.67
2017-08-23T01:12:05.034Z,16.63
2017-08-23T01:13:05.074Z,16.73
2017-08-23T01:14:59.578Z,16.70
2017-08-23T01:15:59.570Z,16.56
2017-08-23T01:17:54.027Z,16.48
2017-08-23T01:18:54.058Z,16.66
2017-08-23T01:20:48.538Z,16.57
2017-08-23T01:21:48.579Z,16.56
2017-08-23T01:23:43.026Z,16.45
2017-08-23T01:24:43.050Z,16.53
2017-08-23T01:26:37.570Z,16.53
2017-08-23T01:27:37.588Z,16.52
2017-08-23T01:29:32.060Z,16.42
2017-08-23T01:30:32.052Z,16.50
2017-08-23T01:32:26.492Z,16.49
2017-08-23T01:33:26.541Z,16.45
2017-08-23T01:35:21.035Z,16.50
2017-08-23T01:36:21.028Z,16.50
2017-08-23T01:38:15.492Z,16.45
2017-08-23T01:39:15.548Z,16.46
2017-08-23T01:41:10.132Z,16.46
2017-08-23T01:42:10.052Z,16.48
2017-08-23T01:44:04.500Z,16.38
2017-08-23T01:45:04.517Z,16.39
2017-08-23T01:46:58.972Z,16.50
2017-08-23T01:47:59.005Z,16.48
2017-08-23T01:49:53.494Z,16.39
2017-08-23T01:50:53.501Z,16.35
2017-08-23T01:52:47.957Z,16.31
2017-08-23T01:53:48.023Z,16.43
2017-08-23T01:55:42.621Z,16.43
2017-08-23T01:56:42.509Z,16.34
2017-08-23T01:58:36.981Z,16.33
2017-08-23T01:59:37.022Z,16.41
2017-08-23T02:01:31.477Z,16.38
2017-08-23T02:02:31.494Z,16.27
2017-08-23T02:04:25.966Z,16.27
2017-08-23T02:05:25.998Z,16.30
2017-08-23T02:07:20.495Z,16.39
2017-08-23T02:08:20.510Z,16.28
2017-08-23T02:10:14.941Z,16.17
2017-08-23T02:11:14.974Z,16.23
2017-08-23T02:13:09.454Z,16.23
2017-08-23T02:14:09.494Z,16.15
2017-08-23T02:16:03.926Z,16.12
2017-08-23T02:17:03.967Z,16.25
2017-08-23T02:18:58.462Z,16.20
2017-08-23T02:19:58.463Z,16.12
2017-08-23T02:21:52.910Z,16.15
2017-08-23T02:22:52.951Z,16.09
2017-08-23T02:24:47.438Z,16.11
2017-08-23T02:25:47.438Z,16.12
2017-08-23T02:27:41.910Z,16.11
2017-08-23T02:28:41.942Z,16.12
2017-08-23T02:30:36.406Z,16.20
2017-08-23T02:31:36.423Z,16.07
2017-08-23T02:33:30.911Z,16.09
2017-08-23T02:34:30.919Z,16.04
2017-08-23T02:36:25.383Z,16.11
2017-08-23T02:37:25.423Z,16.04
2017-08-23T02:39:19.919Z,16.08
2017-08-23T02:40:19.927Z,16.09
2017-08-23T02:42:14.399Z,16.05
2017-08-23T02:43:14.407Z,15.93
2017-08-23T02:45:08.864Z,16.00
2017-08-23T02:46:08.896Z,15.93
2017-08-23T02:48:03.735Z,16.02
2017-08-23T02:49:03.415Z,15.94
2017-08-23T02:50:57.871Z,15.97
2017-08-23T02:51:57.896Z,15.94
2017-08-23T02:53:52.335Z,15.96
2017-08-23T02:54:52.383Z,15.94
2017-08-23T02:56:46.839Z,16.04
2017-08-23T02:57:46.928Z,15.80
2017-08-23T02:59:53.704Z,15.96
2017-08-23T03:00:53.720Z,15.97
2017-08-23T03:02:48.226Z,15.87
2017-08-23T03:03:48.216Z,15.89
2017-08-23T03:05:42.679Z,15.80
2017-08-23T03:06:42.720Z,15.80
2017-08-23T03:08:37.184Z,15.78
2017-08-23T03:09:37.304Z,15.75
2017-08-23T03:11:31.680Z,15.71
2017-08-23T03:12:31.705Z,15.74
2017-08-23T03:14:26.195Z,15.71
2017-08-23T03:15:26.202Z,15.74
2017-08-23T03:17:20.672Z,15.78
2017-08-23T03:18:20.696Z,15.74
2017-08-23T03:20:15.160Z,15.68
2017-08-23T03:21:15.185Z,15.60
2017-08-23T03:23:10.641Z,15.71
2017-08-23T03:24:10.696Z,15.56
2017-08-23T03:26:05.161Z,15.60
2017-08-23T03:27:05.161Z,15.57
2017-08-23T03:28:59.642Z,15.72
2017-08-23T03:29:59.658Z,15.59
2017-08-23T03:31:54.146Z,15.68
2017-08-23T03:32:54.193Z,15.72
2017-08-23T03:34:48.665Z,15.67
2017-08-23T03:35:48.665Z,15.72
2017-08-23T03:37:43.114Z,15.60
2017-08-23T03:38:43.145Z,15.60
2017-08-23T03:40:37.634Z,15.64
2017-08-23T03:41:37.645Z,15.51
2017-08-23T03:43:32.122Z,15.54
2017-08-23T03:44:32.130Z,15.47
2017-08-23T03:46:26.627Z,15.53
2017-08-23T03:47:26.635Z,15.41
2017-08-23T03:49:21.106Z,15.47
2017-08-23T03:50:21.130Z,15.41
2017-08-23T03:52:15.578Z,15.49
2017-08-23T03:53:15.619Z,15.44
2017-08-23T03:55:10.099Z,15.50
2017-08-23T03:56:10.106Z,15.32
2017-08-23T03:58:04.562Z,15.39
2017-08-23T03:59:04.614Z,15.39
2017-08-23T04:00:59.090Z,15.44
2017-08-23T04:01:59.091Z,15.36
2017-08-23T04:03:52.587Z,15.31
2017-08-23T04:04:52.595Z,15.21
2017-08-23T04:06:47.075Z,15.36
2017-08-23T04:07:47.094Z,15.28
2017-08-23T04:09:41.596Z,15.36
2017-08-23T04:10:41.587Z,15.29
2017-08-23T04:12:36.066Z,15.35
2017-08-23T04:13:36.075Z,15.34
2017-08-23T04:15:30.532Z,15.28
2017-08-23T04:16:30.564Z,15.38
2017-08-23T04:18:25.044Z,15.17
2017-08-23T04:19:25.059Z,15.19
2017-08-23T04:21:19.547Z,15.27
2017-08-23T04:22:19.628Z,15.19
2017-08-23T04:24:14.091Z,15.21
2017-08-23T04:25:14.115Z,15.25
2017-08-23T04:27:21.492Z,15.16
2017-08-23T04:28:21.484Z,15.23
2017-08-23T04:30:15.965Z,15.20
2017-08-23T04:31:15.980Z,15.29
2017-08-23T04:33:10.651Z,15.19
2017-08-23T04:34:10.483Z,15.19
2017-08-23T04:36:04.971Z,15.20
2017-08-23T04:37:04.979Z,15.07
2017-08-23T04:38:59.460Z,15.17
2017-08-23T04:39:59.516Z,15.21
2017-08-23T04:41:53.965Z,15.19
2017-08-23T04:42:53.980Z,15.11
2017-08-23T04:44:48.387Z,15.13
2017-08-23T04:45:48.436Z,15.17
2017-08-23T04:47:42.940Z,15.16
2017-08-23T04:48:42.932Z,15.19
2017-08-23T04:50:37.388Z,15.16
2017-08-23T04:51:37.436Z,15.25
2017-08-23T04:53:31.884Z,15.14
2017-08-23T04:54:31.948Z,15.29
2017-08-23T04:56:26.412Z,15.21
2017-08-23T04:57:26.420Z,15.25
2017-08-23T04:59:20.916Z,15.29
2017-08-23T05:00:20.924Z,15.34
2017-08-23T05:02:15.388Z,15.35
2017-08-23T05:03:15.388Z,15.28
2017-08-23T05:05:11.397Z,15.34
2017-08-23T05:06:11.396Z,15.29
2017-08-23T05:08:05.829Z,15.44
2017-08-23T05:09:05.877Z,15.41
2017-08-23T05:11:00.341Z,15.44
2017-08-23T05:12:00.388Z,15.46
2017-08-23T05:13:56.917Z,15.39
2017-08-23T05:14:56.901Z,15.36
2017-08-23T05:16:51.269Z,15.31
2017-08-23T05:17:51.533Z,15.35
2017-08-23T05:19:47.653Z,15.46
2017-08-23T05:20:47.197Z,15.41
2017-08-23T05:22:41.982Z,15.41
2017-08-23T05:23:41.702Z,15.47
2017-08-23T05:25:36.117Z,15.38
2017-08-23T05:26:36.581Z,15.46
2017-08-23T05:28:30.989Z,15.41
2017-08-23T05:29:30.805Z,15.49
2017-08-23T05:31:25.565Z,15.47
2017-08-23T05:32:25.230Z,15.47
2017-08-23T05:34:20.037Z,15.57
2017-08-23T05:35:19.830Z,15.62
2017-08-23T05:37:14.453Z,15.57
2017-08-23T05:38:14.261Z,15.57
2017-08-23T05:40:08.677Z,15.57
2017-08-23T05:41:08.789Z,15.64
2017-08-23T05:43:03.158Z,15.74
2017-08-23T05:44:11.934Z,15.68
2017-08-23T05:45:57.695Z,15.71
2017-08-23T05:46:58.197Z,15.78
2017-08-23T05:48:53.653Z,15.78
2017-08-23T05:50:03.854Z,15.78
2017-08-23T05:51:48.110Z,15.80
2017-08-23T05:52:48.150Z,15.76
2017-08-23T05:54:43.369Z,15.83
2017-08-23T05:55:43.047Z,15.84
2017-08-23T05:57:37.134Z,15.93
2017-08-23T05:58:37.190Z,15.84
2017-08-23T06:00:31.631Z,15.90
2017-08-23T06:01:31.670Z,15.97
2017-08-23T06:03:27.519Z,15.93
2017-08-23T06:04:26.151Z,15.96
2017-08-23T06:06:20.599Z,15.94
2017-08-23T06:07:20.687Z,15.93
2017-08-23T06:09:16.999Z,15.92
2017-08-23T06:10:16.863Z,16.01
2017-08-23T06:12:12.800Z,16.01
2017-08-23T06:13:12.819Z,16.07
2017-08-23T06:15:07.581Z,16.05
2017-08-23T06:16:07.016Z,16.00
2017-08-23T06:18:05.069Z,16.02
2017-08-23T06:19:05.535Z,16.07
2017-08-23T06:21:10.032Z,16.12
2017-08-23T06:22:11.050Z,16.12
2017-08-23T06:24:06.064Z,16.15
2017-08-23T06:25:07.976Z,16.14
2017-08-23T06:27:00.536Z,16.24
2017-08-23T06:28:01.519Z,16.34
2017-08-23T06:29:55.128Z,16.30
2017-08-23T06:30:55.072Z,16.31
2017-08-23T06:33:02.264Z,16.34
2017-08-23T06:34:09.696Z,16.38
2017-08-23T06:35:57.080Z,16.49
2017-08-23T06:36:57.497Z,16.49
2017-08-23T06:38:51.687Z,16.58
2017-08-23T06:39:51.543Z,16.60
2017-08-23T06:41:46.032Z,16.56
2017-08-23T06:42:46.047Z,16.66
2017-08-23T06:44:42.560Z,16.73
2017-08-23T06:45:42.287Z,16.71
2017-08-23T06:47:36.152Z,16.85
2017-08-23T06:48:36.191Z,16.91
2017-08-23T06:50:29.854Z,16.79
2017-08-23T06:51:29.751Z,16.91
2017-08-23T06:53:25.351Z,16.96
2017-08-23T06:54:24.151Z,17.07
2017-08-23T06:56:19.784Z,17.18
2017-08-23T06:57:20.583Z,17.26
2017-08-23T06:59:15.042Z,17.37
2017-08-23T07:00:14.264Z,17.38
2017-08-23T07:02:10.992Z,17.46
2017-08-23T07:03:11.464Z,17.52
2017-08-23T07:05:05.152Z,17.68
2017-08-23T07:06:04.696Z,17.68
2017-08-23T07:08:00.490Z,17.72
2017-08-23T07:08:59.176Z,17.81
2017-08-23T07:11:01.360Z,17.89
2017-08-23T07:11:52.721Z,17.99
2017-08-23T07:13:47.161Z,18.05
2017-08-23T07:14:47.841Z,18.17
2017-08-23T07:16:52.241Z,18.29
2017-08-23T07:17:52.217Z,18.30
2017-08-23T07:19:45.705Z,18.36
2017-08-23T07:20:45.721Z,18.47
2017-08-23T07:22:40.273Z,18.57
2017-08-23T07:23:40.289Z,18.52
2017-08-23T07:25:45.193Z,18.70
2017-08-23T07:26:45.226Z,18.67
2017-08-23T07:28:41.585Z,18.75
2017-08-23T07:29:41.546Z,18.82
2017-08-23T07:31:35.977Z,18.98
2017-08-23T07:32:35.980Z,19.08
2017-08-23T07:34:30.521Z,19.04
2017-08-23T07:35:30.500Z,19.16
2017-08-23T07:37:37.289Z,19.18
2017-08-23T07:38:36.537Z,19.32
2017-08-23T07:40:32.881Z,19.50
2017-08-23T07:41:32.697Z,19.50
2017-08-23T07:43:27.114Z,19.55
2017-08-23T07:44:27.146Z,19.66
2017-08-23T07:46:34.559Z,19.73
2017-08-23T07:47:33.194Z,19.69
2017-08-23T07:49:39.234Z,19.73
2017-08-23T07:50:39.266Z,19.77
2017-08-23T07:52:35.266Z,19.87
2017-08-23T07:53:35.746Z,19.99
2017-08-23T07:55:29.706Z,20.06
2017-08-23T07:56:29.811Z,20.16
2017-08-23T07:58:36.227Z,20.21
2017-08-23T07:59:35.813Z,20.23
2017-08-23T08:01:31.346Z,20.23
2017-08-23T08:02:31.235Z,20.26
2017-08-23T08:04:27.131Z,20.43
2017-08-23T08:05:27.139Z,20.48
2017-08-23T08:07:21.611Z,20.61
2017-08-23T08:08:21.629Z,20.64
2017-08-23T08:10:16.259Z,20.76
2017-08-23T08:11:16.619Z,20.85
2017-08-23T08:13:10.699Z,20.99
2017-08-23T08:14:10.619Z,20.95
2017-08-23T08:16:05.155Z,21.04
2017-08-23T08:17:05.173Z,21.25
2017-08-23T08:18:59.228Z,21.21
2017-08-23T08:19:58.819Z,21.29
2017-08-23T08:21:53.412Z,21.46
2017-08-23T08:22:53.547Z,21.47
2017-08-23T08:24:48.124Z,21.49
2017-08-23T08:25:55.803Z,21.59
2017-08-23T08:27:42.476Z,21.77
2017-08-23T08:28:42.534Z,21.90
2017-08-23T08:30:38.676Z,21.96
2017-08-23T08:31:38.684Z,22.02
2017-08-23T08:33:34.532Z,22.20
2017-08-23T08:34:34.404Z,22.31
2017-08-23T08:36:30.892Z,22.45
2017-08-23T08:37:30.948Z,22.55
2017-08-23T08:39:23.996Z,22.68
2017-08-23T08:40:24.508Z,22.80
2017-08-23T08:42:18.187Z,22.91
2017-08-23T08:43:18.107Z,23.01
2017-08-23T08:45:12.580Z,23.16
2017-08-23T08:46:13.115Z,23.31
2017-08-23T08:48:07.213Z,23.42
2017-08-23T08:49:06.924Z,23.39
2017-08-23T08:51:04.099Z,23.53
2017-08-23T08:52:04.003Z,23.55
2017-08-23T08:53:57.620Z,23.68
2017-08-23T08:54:57.516Z,23.83
2017-08-23T08:56:51.572Z,23.91
2017-08-23T08:57:51.364Z,23.93
2017-08-23T08:59:47.117Z,24.00
2017-08-23T09:00:47.156Z,24.16
2017-08-23T09:02:41.596Z,24.27
2017-08-23T09:03:49.324Z,24.24
2017-08-23T09:05:35.092Z,24.30
2017-08-23T09:06:35.172Z,24.45
2017-08-23T09:08:30.388Z,24.46
2017-08-23T09:09:29.701Z,24.52
2017-08-23T09:11:24.212Z,24.46
2017-08-23T09:12:24.358Z,24.58
2017-08-23T09:14:17.871Z,24.46
2017-08-23T09:15:26.429Z,24.62
2017-08-23T09:17:32.693Z,24.80
2017-08-23T09:18:23.679Z,24.84
2017-08-23T09:20:19.901Z,24.99
2017-08-23T09:21:19.717Z,25.10
2017-08-23T09:23:13.620Z,25.28
2017-08-23T09:24:13.317Z,25.30
2017-08-23T09:26:21.125Z,25.43
2017-08-23T09:27:21.189Z,25.45
2017-08-23T09:29:16.013Z,25.50
2017-08-23T09:30:15.681Z,25.52
2017-08-23T09:32:11.269Z,25.87
2017-08-23T09:33:11.269Z,25.99
2017-08-23T09:35:17.718Z,26.09
2017-08-23T09:36:17.735Z,26.15
2017-08-23T09:38:22.496Z,26.17
2017-08-23T09:39:12.360Z,26.17
2017-08-23T09:41:18.408Z,26.60
2017-08-23T09:42:27.264Z,26.70
2017-08-23T09:44:12.592Z,27.00
2017-08-23T09:45:11.944Z,27.10
2017-08-23T09:47:05.784Z,27.06
2017-08-23T09:48:05.496Z,27.07
2017-08-23T09:50:11.497Z,27.29
2017-08-23T09:51:11.480Z,27.50
2017-08-23T09:53:16.240Z,27.84
2017-08-23T09:54:16.416Z,27.92
2017-08-23T09:57:52.408Z,28.06
2017-08-23T09:59:02.961Z,28.24
2017-08-23T10:02:28.513Z,28.73
2017-08-23T10:05:24.577Z,28.90
2017-08-23T10:06:24.598Z,29.08
2017-08-23T10:08:21.049Z,29.24
2017-08-23T10:09:20.641Z,29.39
2017-08-23T10:11:25.377Z,29.74
2017-08-23T10:12:15.089Z,29.89
2017-08-23T10:14:17.683Z,29.92
2017-08-23T10:15:09.521Z,30.04
2017-08-23T10:17:16.994Z,30.24
2017-08-23T10:18:05.793Z,30.16
2017-08-23T10:20:00.201Z,30.60
2017-08-23T10:21:00.289Z,30.72
2017-08-23T10:23:07.249Z,31.09
2017-08-23T10:23:56.450Z,31.09
2017-08-23T10:26:02.746Z,31.36
2017-08-23T10:26:52.377Z,31.48
2017-08-23T10:28:47.434Z,31.85
2017-08-23T10:29:46.887Z,31.91
2017-08-23T10:31:42.058Z,32.10
2017-08-23T10:32:42.058Z,32.26
2017-08-23T10:34:36.602Z,32.75
2017-08-23T10:35:36.522Z,32.94
2017-08-23T10:37:53.674Z,33.00
2017-08-23T10:38:32.027Z,33.29
2017-08-23T10:40:25.363Z,33.87
2017-08-23T10:41:25.170Z,33.78
2017-08-23T10:43:21.211Z,34.12
2017-08-23T10:44:19.771Z,34.34
2017-08-23T10:46:14.723Z,34.56
2017-08-23T10:47:14.754Z,34.40
2017-08-23T10:49:10.899Z,35.25
2017-08-23T10:50:10.874Z,35.41
2017-08-23T10:52:05.667Z,35.23
2017-08-23T10:53:05.659Z,35.22
2017-08-23T10:55:00.339Z,35.65
2017-08-23T10:56:00.148Z,35.63
2017-08-23T10:57:53.627Z,35.90
2017-08-23T10:58:54.204Z,36.22
2017-08-23T11:00:48.147Z,36.56
2017-08-23T11:01:48.431Z,36.99
2017-08-23T11:03:42.699Z,37.56
2017-08-23T11:04:42.747Z,37.84
2017-08-23T11:06:39.739Z,37.56
2017-08-23T11:07:38.332Z,37.49
2017-08-23T11:09:31.347Z,37.91
2017-08-23T11:10:31.381Z,38.03
2017-08-23T11:12:25.972Z,38.50
2017-08-23T11:13:26.140Z,39.06
2017-08-23T11:15:20.532Z,39.40
2017-08-23T11:16:20.588Z,39.55
2017-08-23T11:18:16.572Z,39.89
2017-08-23T11:19:16.604Z,40.41
2017-08-23T11:21:11.132Z,40.62
2017-08-23T11:22:11.124Z,40.65
2017-08-23T11:24:05.705Z,40.77
2017-08-23T11:25:05.692Z,40.94
2017-08-23T11:27:00.324Z,40.91
2017-08-23T11:28:00.321Z,41.04
2017-08-23T11:29:54.732Z,41.73
2017-08-23T11:30:54.757Z,42.28
2017-08-23T11:32:50.789Z,42.47
2017-08-23T11:33:50.916Z,42.84
2017-08-23T11:35:45.365Z,43.47
2017-08-23T11:36:45.397Z,43.27
2017-08-23T11:38:40.005Z,43.87
2017-08-23T11:39:39.973Z,44.12
2017-08-23T11:41:34.444Z,44.21
2017-08-23T11:42:34.494Z,44.59
2017-08-23T11:44:29.166Z,45.08
2017-08-23T11:45:29.157Z,45.26
2017-08-23T11:47:25.509Z,44.60
2017-08-23T11:48:25.549Z,45.33
2017-08-23T11:50:20.463Z,45.61
2017-08-23T11:51:20.461Z,45.69
2017-08-23T11:53:15.125Z,45.00
2017-08-23T11:54:15.045Z,45.31
2017-08-23T11:56:09.589Z,44.37
2017-08-23T11:57:09.581Z,45.04
2017-08-23T11:59:05.637Z,44.53
2017-08-23T12:00:05.701Z,43.84
2017-08-23T12:01:59.133Z,43.31
2017-08-23T12:02:59.102Z,42.66
2017-08-23T12:04:53.549Z,42.78
2017-08-23T12:05:53.654Z,43.78
2017-08-23T12:07:49.694Z,44.62
2017-08-23T12:08:49.654Z,44.70
2017-08-23T12:10:44.214Z,46.23
2017-08-23T12:11:44.230Z,46.87
2017-08-23T12:13:38.822Z,47.15
2017-08-23T12:14:38.830Z,47.70
2017-08-23T12:16:33.326Z,48.07
2017-08-23T12:17:33.355Z,46.98
2017-08-23T12:19:29.678Z,45.80
2017-08-23T12:20:29.687Z,45.79
2017-08-23T12:22:24.390Z,45.79
2017-08-23T12:23:24.382Z,46.14
2017-08-23T12:25:21.478Z,46.39
2017-08-23T12:26:20.591Z,46.59
2017-08-23T12:28:15.113Z,46.98
2017-08-23T12:29:15.360Z,47.14
2017-08-23T12:31:19.879Z,46.39
2017-08-23T12:32:11.183Z,45.42
2017-08-23T12:34:04.294Z,44.71
2017-08-23T12:35:04.415Z,44.75
2017-08-23T12:36:58.839Z,46.12
2017-08-23T12:37:59.055Z,46.23
2017-08-23T12:39:52.646Z,47.19
2017-08-23T12:40:52.607Z,47.34
2017-08-23T12:42:49.527Z,47.75
2017-08-23T12:43:49.583Z,47.91
2017-08-23T12:45:55.263Z,47.82
2017-08-23T12:46:55.384Z,47.17
2017-08-23T12:48:50.207Z,47.07
2017-08-23T12:49:50.352Z,48.09
2017-08-23T12:51:44.760Z,47.54
2017-08-23T12:52:44.776Z,47.61
2017-08-23T12:54:39.408Z,47.38
2017-08-23T12:55:39.319Z,47.41
2017-08-23T12:57:34.360Z,46.98
2017-08-23T12:58:33.896Z,46.69
2017-08-23T13:00:28.416Z,46.99
2017-08-23T13:01:28.424Z,45.80
2017-08-23T13:03:22.944Z,45.76
2017-08-23T13:04:22.985Z,46.69
2017-08-23T13:06:18.081Z,46.11
2017-08-23T13:07:18.167Z,46.47
2017-08-23T13:09:14.279Z,45.10
2017-08-23T13:10:14.295Z,45.47
2017-08-23T13:12:08.759Z,45.31
2017-08-23T13:13:08.824Z,44.88
2017-08-23T13:15:03.312Z,45.96
2017-08-23T13:16:03.344Z,46.45
2017-08-23T13:17:57.879Z,46.54
2017-08-23T13:18:57.944Z,46.91
2017-08-23T13:20:52.544Z,46.78
2017-08-23T13:21:52.463Z,46.37
2017-08-23T13:23:47.999Z,45.35
2017-08-23T13:24:47.993Z,45.84
2017-08-23T13:26:44.120Z,46.35
2017-08-23T13:27:44.096Z,46.16
2017-08-23T13:29:38.601Z,45.07
2017-08-23T13:30:38.626Z,45.05
2017-08-23T13:32:35.104Z,45.73
2017-08-23T13:33:35.681Z,45.61
2017-08-23T13:35:29.656Z,44.68
2017-08-23T13:36:29.712Z,45.21
2017-08-23T13:38:24.784Z,45.69
2017-08-23T13:39:24.497Z,45.60
2017-08-23T13:41:19.425Z,45.35
2017-08-23T13:42:19.481Z,45.26
2017-08-23T13:44:13.981Z,44.13
2017-08-23T13:45:14.025Z,44.14
2017-08-23T13:47:08.521Z,43.91
2017-08-23T13:48:08.546Z,43.93
2017-08-23T13:50:04.608Z,43.65
2017-08-23T13:51:04.657Z,43.38
2017-08-23T13:52:58.697Z,42.36
2017-08-23T13:53:58.665Z,42.08
2017-08-23T13:55:52.185Z,41.94
2017-08-23T13:56:52.265Z,41.47
2017-08-23T13:58:48.458Z,39.57
2017-08-23T13:59:48.442Z,39.07
2017-08-23T14:01:42.862Z,37.91
2017-08-23T14:02:42.905Z,37.79
2017-08-23T14:04:36.522Z,38.00
2017-08-23T14:05:36.578Z,37.93
2017-08-23T14:07:31.113Z,38.23
2017-08-23T14:08:31.042Z,37.41
2017-08-23T14:10:27.050Z,37.44
2017-08-23T14:11:27.154Z,37.51
2017-08-23T14:13:20.651Z,38.11
2017-08-23T14:14:20.674Z,38.11
2017-08-23T14:16:15.202Z,38.52
2017-08-23T14:17:15.370Z,38.09
2017-08-23T14:19:09.451Z,38.91
2017-08-23T14:20:09.874Z,38.96
2017-08-23T14:22:03.426Z,38.88
2017-08-23T14:23:04.331Z,38.88
2017-08-23T14:24:57.834Z,39.25
2017-08-23T14:25:58.954Z,39.45
2017-08-23T14:27:51.483Z,38.93
2017-08-23T14:28:51.451Z,39.09
2017-08-23T14:30:45.971Z,39.03
2017-08-23T14:31:46.043Z,38.16
2017-08-23T14:33:39.586Z,37.50
2017-08-23T14:34:40.515Z,37.34
2017-08-23T14:36:34.051Z,37.02
2017-08-23T14:37:34.131Z,36.99
2017-08-23T14:39:28.627Z,36.73
2017-08-23T14:40:28.843Z,36.46
2017-08-23T14:42:26.651Z,35.60
2017-08-23T14:43:24.716Z,35.55
2017-08-23T14:45:19.450Z,35.19
2017-08-23T14:46:19.267Z,35.26
2017-08-23T14:48:13.739Z,34.85
2017-08-23T14:49:13.827Z,34.85
2017-08-23T14:51:09.804Z,34.21
2017-08-23T14:52:09.811Z,33.91
2017-08-23T14:54:04.804Z,33.59
2017-08-23T14:55:04.972Z,33.60
2017-08-23T14:56:58.396Z,33.86
2017-08-23T14:57:58.436Z,33.94
2017-08-23T14:59:51.436Z,33.61
2017-08-23T15:00:51.501Z,33.29
2017-08-23T15:02:44.477Z,33.47
2017-08-23T15:03:44.508Z,33.47
2017-08-23T15:05:37.554Z,33.26
2017-08-23T15:06:38.507Z,32.97
2017-08-23T15:08:30.570Z,32.94
2017-08-23T15:09:30.594Z,33.19
2017-08-23T15:11:23.618Z,32.92
2017-08-23T15:12:23.642Z,32.84
2017-08-23T15:14:16.634Z,32.84
2017-08-23T15:15:16.723Z,32.93
2017-08-23T15:17:09.675Z,33.00
2017-08-23T15:18:09.729Z,32.87
2017-08-23T15:20:04.243Z,32.88
2017-08-23T15:21:04.211Z,32.77
2017-08-23T15:22:57.827Z,32.84
2017-08-23T15:23:57.875Z,32.75
2017-08-23T15:25:50.922Z,32.55
2017-08-23T15:26:50.907Z,32.50
2017-08-23T15:28:43.931Z,32.29
2017-08-23T15:29:43.941Z,32.32
2017-08-23T15:31:38.405Z,31.89
2017-08-23T15:32:38.460Z,31.92
2017-08-23T15:34:33.731Z,31.81
2017-08-23T15:35:33.036Z,31.63
2017-08-23T15:37:30.035Z,31.38
2017-08-23T15:38:30.052Z,31.43
2017-08-23T15:40:24.740Z,31.57
2017-08-23T15:41:24.596Z,31.63
2017-08-23T15:43:18.116Z,31.78
2017-08-23T15:44:18.131Z,31.89
2017-08-23T15:46:12.684Z,31.84
2017-08-23T15:47:12.679Z,31.92
2017-08-23T15:49:12.212Z,31.72
2017-08-23T15:50:07.180Z,31.78
2017-08-23T15:52:01.796Z,31.54
2017-08-23T15:53:01.813Z,31.62
2017-08-23T15:54:55.772Z,31.35
2017-08-23T15:55:55.805Z,31.06
2017-08-23T15:57:50.292Z,30.95
2017-08-23T15:58:50.305Z,30.94
2017-08-23T16:00:44.852Z,30.83
2017-08-23T16:01:44.852Z,30.76
2017-08-23T16:03:39.333Z,30.79
2017-08-23T16:04:39.357Z,30.73
2017-08-23T16:06:33.014Z,30.46
2017-08-23T16:07:32.973Z,30.42
2017-08-23T16:09:30.419Z,30.54
2017-08-23T16:10:30.009Z,30.34
2017-08-23T16:12:26.003Z,30.49
2017-08-23T16:13:24.506Z,30.46
2017-08-23T16:15:18.072Z,30.37
2017-08-23T16:16:18.096Z,30.39
2017-08-23T16:18:13.720Z,30.43
2017-08-23T16:19:13.672Z,30.54
2017-08-23T16:21:08.184Z,30.55
2017-08-23T16:22:08.208Z,30.60
2017-08-23T16:24:02.732Z,30.67
2017-08-23T16:25:02.816Z,30.76
2017-08-23T16:26:57.240Z,30.73
2017-08-23T16:27:57.304Z,30.69
2017-08-23T16:29:50.842Z,30.62
2017-08-23T16:30:50.817Z,30.54
2017-08-23T16:32:43.857Z,30.51
2017-08-23T16:33:43.889Z,30.58
2017-08-23T16:35:37.497Z,30.54
2017-08-23T16:36:37.441Z,30.55
2017-08-23T16:38:31.905Z,30.42
2017-08-23T16:39:31.953Z,30.45
2017-08-23T16:41:26.842Z,30.42
2017-08-23T16:42:25.513Z,30.32
2017-08-23T16:44:20.018Z,30.35
2017-08-23T16:45:20.058Z,30.39
2017-08-23T16:47:14.601Z,30.29
2017-08-23T16:48:14.578Z,30.32
2017-08-23T16:50:09.210Z,30.32
2017-08-23T16:51:09.146Z,30.27
2017-08-23T16:53:03.642Z,30.13
2017-08-23T16:54:03.706Z,30.17
2017-08-23T16:56:05.970Z,30.05
2017-08-23T16:56:58.261Z,30.07
2017-08-23T16:58:53.274Z,30.02
2017-08-23T16:59:53.453Z,30.04
2017-08-23T17:01:48.036Z,30.07
2017-08-23T17:02:47.434Z,30.05
2017-08-23T17:04:42.290Z,30.08
2017-08-23T17:05:42.068Z,30.05
2017-08-23T17:07:39.411Z,30.02
2017-08-23T17:08:38.923Z,29.92
2017-08-23T17:10:32.723Z,29.92
2017-08-23T17:11:32.491Z,29.89
2017-08-23T17:13:28.614Z,29.78
2017-08-23T17:14:28.542Z,29.61
2017-08-23T17:16:23.046Z,29.57
2017-08-23T17:17:23.094Z,29.41
2017-08-23T17:19:16.534Z,29.36
2017-08-23T17:20:17.590Z,29.37
2017-08-23T17:22:11.118Z,29.30
2017-08-23T17:23:11.094Z,29.14
2017-08-23T17:25:05.614Z,28.95
2017-08-23T17:26:05.598Z,29.00
2017-08-23T17:28:01.567Z,28.96
2017-08-23T17:29:01.606Z,28.92
2017-08-23T17:30:56.174Z,28.86
2017-08-23T17:31:56.141Z,28.90
2017-08-23T17:33:50.614Z,28.83
2017-08-23T17:34:50.678Z,28.70
2017-08-23T17:36:45.182Z,28.85
2017-08-23T17:37:45.175Z,28.77
2017-08-23T17:39:41.158Z,28.81
2017-08-23T17:40:41.191Z,28.71
2017-08-23T17:42:35.703Z,28.70
2017-08-23T17:43:35.764Z,28.80
2017-08-23T17:45:32.807Z,28.58
2017-08-23T17:46:32.776Z,28.61
2017-08-23T17:48:25.743Z,28.51
2017-08-23T17:49:25.727Z,28.49
2017-08-23T17:51:20.430Z,28.46
2017-08-23T17:52:20.343Z,28.46
2017-08-23T17:54:14.720Z,28.30
2017-08-23T17:55:14.698Z,28.25
2017-08-23T17:57:08.167Z,28.04
2017-08-23T17:58:08.199Z,28.06
2017-08-23T18:00:02.665Z,28.11
2017-08-23T18:01:02.687Z,28.07
2017-08-23T18:02:56.184Z,28.00
2017-08-23T18:03:56.208Z,27.96
2017-08-23T18:05:50.703Z,28.03
2017-08-23T18:06:50.713Z,27.99
2017-08-23T18:08:45.344Z,27.93
2017-08-23T18:09:45.424Z,27.88
2017-08-23T18:11:39.407Z,27.77
2017-08-23T18:12:39.456Z,27.81
2017-08-23T18:14:35.448Z,27.65
2017-08-23T18:15:35.472Z,27.67
2017-08-23T18:17:29.992Z,27.62
2017-08-23T18:18:30.001Z,27.65
2017-08-23T18:20:26.372Z,27.41
2017-08-23T18:21:25.721Z,27.46
2017-08-23T18:23:19.376Z,27.44
2017-08-23T18:24:19.304Z,27.47
2017-08-23T18:26:13.664Z,27.43
2017-08-23T18:27:13.585Z,27.37
2017-08-23T18:29:09.729Z,27.25
2017-08-23T18:30:07.209Z,27.21
2017-08-23T18:32:03.841Z,27.17
2017-08-23T18:33:01.153Z,27.19
2017-08-23T18:34:55.760Z,27.17
2017-08-23T18:35:55.665Z,27.06
2017-08-23T18:38:00.826Z,27.02
2017-08-23T18:39:00.913Z,26.92
2017-08-23T18:40:55.905Z,26.97
2017-08-23T18:41:55.849Z,26.82
2017-08-23T18:43:50.393Z,26.81
2017-08-23T18:44:50.314Z,26.76
2017-08-23T18:46:44.873Z,26.80
2017-08-23T18:47:44.774Z,26.63
2017-08-23T18:49:39.270Z,26.67
2017-08-23T18:50:39.304Z,26.55
2017-08-23T18:52:36.547Z,26.55